Time;durP1;ratioP1;P1;durP2;ratioP2;P2;SDS_P1;SDS_P2;PMS_P1;PMS_P2;Temp;Humidity;BMP_temperature;BMP_pressure;BME280_temperature;BME280_humidity;BME280_pressure;Samples;Min_cycle;Max_cycle;Signal;HPM_P1;HPM_P2
2021/05/21 00:01:57;;;;;;;3.70;1.98;;;12.10;83.70;;;;;;5031839;28;20037;-68
2021/05/21 00:04:22;;;;;;;2.88;1.52;;;12.20;83.80;;;;;;5031251;28;20107;-69
2021/05/21 00:06:48;;;;;;;2.03;1.30;;;12.20;83.20;;;;;;5031943;28;20530;-69
2021/05/21 00:09:14;;;;;;;2.22;1.30;;;12.30;82.50;;;;;;5031241;28;20048;-68
2021/05/21 00:11:41;;;;;;;3.45;1.40;;;12.20;82.40;;;;;;5031226;28;20038;-69
2021/05/21 00:14:06;;;;;;;3.38;1.42;;;12.30;82.30;;;;;;5031901;28;20041;-68
2021/05/21 00:16:32;;;;;;;1.55;1.42;;;12.30;82.00;;;;;;5030950;28;20478;-69
2021/05/21 00:18:58;;;;;;;3.40;1.30;;;12.30;82.80;;;;;;5031507;28;20404;-70
2021/05/21 00:21:24;;;;;;;1.33;1.20;;;12.20;82.70;;;;;;5029468;28;20041;-69
2021/05/21 00:23:49;;;;;;;3.15;1.73;;;12.20;82.70;;;;;;5030016;28;20037;-69
2021/05/21 00:26:15;;;;;;;2.75;1.48;;;12.20;82.90;;;;;;5030872;28;20518;-69
2021/05/21 00:28:41;;;;;;;3.20;1.45;;;12.20;82.80;;;;;;5029213;28;20431;-69
2021/05/21 00:31:07;;;;;;;3.70;2.03;;;12.20;83.20;;;;;;5032498;28;20033;-69
2021/05/21 00:33:32;;;;;;;4.78;1.70;;;12.20;83.30;;;;;;5029893;28;20056;-70
2021/05/21 00:35:58;;;;;;;3.50;1.55;;;12.10;83.20;;;;;;5028840;28;20453;-68
2021/05/21 00:38:24;;;;;;;2.72;1.50;;;12.10;83.10;;;;;;5030827;28;20041;-68
2021/05/21 00:40:49;;;;;;;2.28;1.42;;;12.10;83.70;;;;;;5044583;28;20128;-68
2021/05/21 00:43:16;;;;;;;2.83;1.23;;;12.00;83.30;;;;;;5031509;28;20064;-68
2021/05/21 00:45:42;;;;;;;1.67;1.42;;;12.00;83.70;;;;;;5031867;28;20087;-67
2021/05/21 00:48:08;;;;;;;3.38;1.60;;;12.00;83.50;;;;;;5030779;28;20041;-68
2021/05/21 00:50:34;;;;;;;1.33;1.10;;;12.10;83.80;;;;;;5028948;28;20068;-68
2021/05/21 00:53:03;;;;;;;4.95;1.38;;;12.10;83.70;;;;;;5031994;28;20076;-68
2021/05/21 00:55:29;;;;;;;3.08;1.33;;;12.10;83.60;;;;;;5030524;28;20037;-67
2021/05/21 00:57:54;;;;;;;4.03;1.40;;;12.10;83.80;;;;;;5030969;28;20055;-67
2021/05/21 01:00:20;;;;;;;2.25;1.30;;;12.10;84.00;;;;;;5029356;28;20029;-66
2021/05/21 01:02:46;;;;;;;2.17;1.10;;;12.10;83.70;;;;;;5029499;28;20041;-66
2021/05/21 01:05:13;;;;;;;2.83;1.38;;;12.10;83.50;;;;;;5026839;28;20033;-66
2021/05/21 01:07:38;;;;;;;2.78;1.23;;;12.10;83.60;;;;;;5031353;28;20041;-66
2021/05/21 01:10:05;;;;;;;3.10;1.25;;;12.20;83.40;;;;;;5030282;28;20038;-68
2021/05/21 01:12:31;;;;;;;2.70;1.13;;;12.20;82.80;;;;;;5030759;28;20041;-68
2021/05/21 01:14:57;;;;;;;3.10;1.27;;;12.20;83.00;;;;;;5031091;28;20049;-68
2021/05/21 01:17:25;;;;;;;2.95;1.10;;;12.20;83.30;;;;;;5031889;28;20455;-68
2021/05/21 01:19:52;;;;;;;3.28;1.42;;;12.20;83.70;;;;;;5031339;28;20037;-67
2021/05/21 01:22:18;;;;;;;2.97;1.30;;;12.20;83.40;;;;;;5045377;28;20091;-67
2021/05/21 01:24:45;;;;;;;4.32;1.20;;;12.20;83.80;;;;;;5029420;28;20107;-67
2021/05/21 01:27:11;;;;;;;5.03;1.67;;;12.20;83.20;;;;;;5029089;28;20076;-67
2021/05/21 01:29:39;;;;;;;4.72;1.17;;;12.20;83.60;;;;;;5027358;28;20042;-68
2021/05/21 01:32:08;;;;;;;3.53;1.25;;;12.30;83.20;;;;;;5029764;28;20341;-68
2021/05/21 01:34:35;;;;;;;3.97;1.70;;;12.30;83.00;;;;;;5029780;28;20041;-67
2021/05/21 01:37:01;;;;;;;3.88;1.17;;;12.30;83.40;;;;;;5030464;28;20471;-67
2021/05/21 01:39:35;;;;;;;1.60;1.00;;;12.40;82.60;;;;;;5028650;28;20038;-67
2021/05/21 01:42:01;;;;;;;1.90;1.20;;;12.40;82.30;;;;;;5029830;28;20372;-67
2021/05/21 01:44:27;;;;;;;1.63;0.90;;;12.40;82.90;;;;;;5030231;28;20059;-66
2021/05/21 01:46:53;;;;;;;2.35;1.20;;;12.50;82.60;;;;;;5029368;28;20048;-67
2021/05/21 01:49:19;;;;;;;2.72;1.20;;;12.50;82.70;;;;;;5030453;28;20052;-67
2021/05/21 01:51:54;;;;;;;3.92;1.50;;;12.50;82.50;;;;;;5029210;28;20033;-67
2021/05/21 01:54:20;;;;;;;4.47;1.40;;;12.50;82.50;;;;;;5030315;28;20048;-67
2021/05/21 01:56:47;;;;;;;3.60;1.15;;;12.50;83.10;;;;;;5040961;28;20032;-67
2021/05/21 01:59:14;;;;;;;2.65;1.30;;;12.50;82.10;;;;;;5035258;28;20069;-67
2021/05/21 02:01:40;;;;;;;6.20;1.42;;;12.50;82.30;;;;;;5029049;28;20037;-67
2021/05/21 02:04:05;;;;;;;1.85;1.40;;;12.60;82.00;;;;;;5028561;28;20040;-67
2021/05/21 02:06:35;;;;;;;2.92;1.50;;;12.70;81.40;;;;;;5028177;28;20041;-67
2021/05/21 02:09:01;;;;;;;2.63;1.33;;;12.80;81.70;;;;;;5027353;28;20045;-67
2021/05/21 02:11:27;;;;;;;2.30;1.20;;;12.90;80.90;;;;;;5029723;28;20120;-68
2021/05/21 02:13:52;;;;;;;4.72;1.52;;;12.90;81.50;;;;;;5029227;28;20112;-67
2021/05/21 02:16:18;;;;;;;3.42;1.20;;;12.70;82.10;;;;;;5029170;28;20401;-67
2021/05/21 02:18:44;;;;;;;5.95;1.73;;;12.80;81.70;;;;;;5028672;28;20038;-67
2021/05/21 02:21:10;;;;;;;6.07;1.98;;;12.90;83.20;;;;;;5028601;28;20358;-67
2021/05/21 02:23:36;;;;;;;9.15;1.80;;;12.70;83.00;;;;;;5027103;28;20493;-68
2021/05/21 02:26:01;;;;;;;9.10;2.53;;;12.70;83.40;;;;;;5029258;28;20060;-68
2021/05/21 02:28:27;;;;;;;6.35;1.73;;;12.50;82.90;;;;;;5029910;28;20076;-68
2021/05/21 02:30:53;;;;;;;10.57;2.63;;;12.50;83.30;;;;;;5030696;28;20049;-67
2021/05/21 02:33:19;;;;;;;10.35;2.75;;;12.30;86.80;;;;;;5029290;28;20041;-67
2021/05/21 02:35:45;;;;;;;12.57;2.58;;;12.20;87.20;;;;;;5026379;28;20042;-67
2021/05/21 02:38:10;;;;;;;12.50;2.65;;;12.20;85.40;;;;;;5028536;28;20104;-67
2021/05/21 02:40:36;;;;;;;9.68;2.45;;;12.20;85.60;;;;;;5029237;28;20455;-67
2021/05/21 02:43:01;;;;;;;10.60;2.13;;;12.10;85.90;;;;;;5029805;28;20048;-68
2021/05/21 02:45:27;;;;;;;9.23;2.00;;;12.00;87.20;;;;;;5028540;28;20037;-68
2021/05/21 02:47:53;;;;;;;13.35;3.15;;;12.10;87.90;;;;;;5028739;28;20041;-68
2021/05/21 02:50:18;;;;;;;13.80;2.58;;;12.10;87.10;;;;;;5027962;28;20399;-67
2021/05/21 02:52:44;;;;;;;10.98;3.03;;;12.00;86.80;;;;;;5026760;28;20316;-67
2021/05/21 02:55:10;;;;;;;11.40;3.03;;;12.00;89.50;;;;;;5029464;28;20045;-68
2021/05/21 02:57:36;;;;;;;11.40;2.63;;;12.00;89.60;;;;;;5029050;28;20510;-67
2021/05/21 03:00:05;;;;;;;13.98;2.78;;;11.90;90.40;;;;;;5029145;28;20494;-68
2021/05/21 03:02:30;;;;;;;11.63;2.83;;;11.90;88.60;;;;;;5036007;28;20033;-68
2021/05/21 03:04:56;;;;;;;9.95;3.47;;;11.80;89.10;;;;;;5027262;28;20096;-68
2021/05/21 03:07:21;;;;;;;9.82;3.03;;;11.80;87.30;;;;;;5028980;28;20049;-68
2021/05/21 03:09:47;;;;;;;9.80;2.70;;;11.70;88.00;;;;;;5026566;28;20029;-68
2021/05/21 03:12:13;;;;;;;15.23;3.00;;;11.70;87.60;;;;;;5028004;28;20041;-68
2021/05/21 03:14:39;;;;;;;11.80;2.28;;;11.70;90.00;;;;;;5028190;28;20064;-67
2021/05/21 03:17:05;;;;;;;10.88;2.53;;;11.70;88.20;;;;;;5029258;28;20479;-67
2021/05/21 03:19:31;;;;;;;10.30;2.35;;;11.70;89.80;;;;;;5028914;28;20038;-67
2021/05/21 03:21:59;;;;;;;13.85;2.72;;;11.80;86.80;;;;;;5028964;28;20030;-67
2021/05/21 03:24:24;;;;;;;14.45;2.80;;;11.70;89.40;;;;;;5026278;28;20060;-67
2021/05/21 03:26:50;;;;;;;10.98;3.08;;;11.50;88.90;;;;;;5025689;28;20038;-67
2021/05/21 03:29:16;;;;;;;9.13;2.25;;;11.50;88.70;;;;;;5027819;28;20467;-67
2021/05/21 03:31:43;;;;;;;10.15;2.20;;;11.30;90.40;;;;;;5029720;28;20124;-66
2021/05/21 03:34:09;;;;;;;9.35;2.47;;;11.20;90.00;;;;;;5031583;28;20446;-66
2021/05/21 03:36:35;;;;;;;11.10;2.47;;;11.10;91.30;;;;;;5032046;28;20046;-68
2021/05/21 03:39:01;;;;;;;8.93;2.22;;;11.00;91.60;;;;;;5030297;28;20077;-66
2021/05/21 03:41:27;;;;;;;13.43;2.35;;;11.00;91.30;;;;;;5028970;28;20117;-66
2021/05/21 03:43:53;;;;;;;10.07;2.42;;;10.90;90.70;;;;;;5032089;28;20124;-67
2021/05/21 03:46:18;;;;;;;10.25;2.95;;;10.80;91.20;;;;;;5029491;28;20530;-67
2021/05/21 03:48:44;;;;;;;13.27;2.40;;;10.70;92.10;;;;;;5026227;28;20037;-67
2021/05/21 03:51:10;;;;;;;13.60;2.95;;;10.80;90.90;;;;;;5030571;28;20132;-67
2021/05/21 03:53:35;;;;;;;8.93;2.33;;;10.70;92.50;;;;;;5032314;28;20037;-67
2021/05/21 03:56:01;;;;;;;12.05;2.70;;;10.60;92.80;;;;;;5031193;28;20091;-67
2021/05/21 03:58:27;;;;;;;11.60;2.28;;;10.60;91.70;;;;;;5032129;28;20033;-67
2021/05/21 04:00:54;;;;;;;16.27;2.60;;;10.60;92.20;;;;;;5032117;28;20033;-66
2021/05/21 04:03:20;;;;;;;18.83;3.28;;;10.50;92.20;;;;;;5032123;28;20456;-66
2021/05/21 04:05:45;;;;;;;14.82;2.60;;;10.60;92.50;;;;;;5030953;28;20416;-66
2021/05/21 04:08:11;;;;;;;13.52;2.50;;;10.60;92.20;;;;;;5031254;28;20041;-67
2021/05/21 04:10:37;;;;;;;10.93;2.50;;;10.60;92.00;;;;;;5030865;28;20201;-67
2021/05/21 04:13:03;;;;;;;16.33;2.53;;;10.60;91.80;;;;;;5031512;28;20455;-67
2021/05/21 04:15:29;;;;;;;14.32;2.90;;;10.60;91.90;;;;;;5031345;28;20045;-66
2021/05/21 04:17:54;;;;;;;10.20;2.55;;;10.60;92.40;;;;;;5031270;28;20080;-66
2021/05/21 04:20:20;;;;;;;18.92;3.05;;;10.60;91.90;;;;;;5030820;28;20474;-67
2021/05/21 04:22:46;;;;;;;12.95;2.60;;;10.50;92.50;;;;;;5026950;28;21081;-67
2021/05/21 04:25:12;;;;;;;15.98;3.10;;;10.60;92.00;;;;;;5028031;28;20442;-67
2021/05/21 04:27:38;;;;;;;13.25;3.17;;;10.70;91.60;;;;;;5024562;28;20044;-66
2021/05/21 04:30:05;;;;;;;15.98;3.03;;;10.70;91.60;;;;;;5030603;28;20045;-66
2021/05/21 04:32:31;;;;;;;17.77;4.38;;;10.70;92.20;;;;;;5031055;28;20512;-67
2021/05/21 04:35:00;;;;;;;14.20;3.28;;;10.70;92.30;;;;;;5027066;28;20069;-67
2021/05/21 04:37:26;;;;;;;14.55;2.67;;;10.70;91.80;;;;;;5030348;28;20579;-67
2021/05/21 04:39:51;;;;;;;17.73;3.00;;;10.70;91.50;;;;;;5064642;22;20560;-69
2021/05/21 04:42:17;;;;;;;19.02;3.03;;;10.80;90.80;;;;;;5071345;28;20047;-69
2021/05/21 04:44:43;;;;;;;11.15;3.13;;;10.90;91.10;;;;;;5069889;28;20044;-69
2021/05/21 04:47:09;;;;;;;19.55;3.22;;;10.90;90.80;;;;;;5069900;28;20453;-69
2021/05/21 04:49:35;;;;;;;13.48;3.45;;;11.00;90.40;;;;;;5070052;28;20032;-70
2021/05/21 04:52:02;;;;;;;15.00;3.17;;;11.00;90.30;;;;;;5070004;28;20046;-70
2021/05/21 04:54:29;;;;;;;15.35;3.45;;;11.00;90.90;;;;;;5065192;28;20045;-71
2021/05/21 04:56:54;;;;;;;13.63;2.65;;;10.90;91.10;;;;;;5061790;28;20041;-70
2021/05/21 04:59:20;;;;;;;16.92;3.45;;;10.80;90.60;;;;;;5069059;28;20038;-70
2021/05/21 05:01:46;;;;;;;15.43;2.88;;;10.70;91.20;;;;;;5062104;28;20350;-70
2021/05/21 05:04:12;;;;;;;14.35;3.00;;;10.70;91.40;;;;;;5068700;28;20044;-70
2021/05/21 05:06:38;;;;;;;14.43;3.10;;;10.70;91.10;;;;;;5067444;28;20123;-70
2021/05/21 05:09:04;;;;;;;22.15;3.22;;;10.70;90.90;;;;;;5071357;28;20123;-71
2021/05/21 05:11:30;;;;;;;15.60;3.22;;;10.80;90.70;;;;;;5060431;28;20459;-71
2021/05/21 05:13:59;;;;;;;18.15;3.42;;;10.90;91.00;;;;;;5060831;28;20136;-70
2021/05/21 05:16:25;;;;;;;17.35;3.40;;;11.10;90.90;;;;;;5063881;28;20037;-71
2021/05/21 05:18:51;;;;;;;16.98;3.35;;;11.20;90.60;;;;;;5059777;28;20082;-70
2021/05/21 05:21:17;;;;;;;14.63;3.38;;;11.30;90.10;;;;;;5056078;28;20052;-70
2021/05/21 05:23:43;;;;;;;17.13;3.67;;;11.30;90.40;;;;;;5067997;28;20032;-70
2021/05/21 05:26:12;;;;;;;14.13;2.83;;;11.50;89.80;;;;;;5061335;28;20029;-70
2021/05/21 05:28:42;;;;;;;16.83;3.40;;;11.60;89.80;;;;;;5067317;28;20044;-70
2021/05/21 05:31:08;;;;;;;15.00;3.45;;;11.70;89.60;;;;;;5062048;28;20056;-70
2021/05/21 05:33:34;;;;;;;18.73;3.13;;;11.80;90.20;;;;;;5062885;28;20383;-70
2021/05/21 05:36:02;;;;;;;14.43;3.40;;;11.90;89.40;;;;;;5060521;28;20044;-69
2021/05/21 05:38:28;;;;;;;16.27;3.13;;;12.00;89.50;;;;;;5063033;28;20086;-71
2021/05/21 05:40:54;;;;;;;18.63;3.38;;;12.20;89.60;;;;;;5052070;28;20049;-70
2021/05/21 05:43:19;;;;;;;15.45;3.38;;;12.30;88.30;;;;;;5058998;28;20032;-70
2021/05/21 05:45:45;;;;;;;15.50;3.47;;;12.60;86.50;;;;;;5058227;28;20029;-70
2021/05/21 05:48:11;;;;;;;14.63;3.33;;;12.80;87.90;;;;;;5064772;28;20032;-71
2021/05/21 05:50:36;;;;;;;14.60;3.80;;;13.30;87.20;;;;;;5069751;28;20039;-70
2021/05/21 05:53:02;;;;;;;15.82;3.38;;;14.70;82.60;;;;;;5071132;28;20079;-71
2021/05/21 05:55:27;;;;;;;18.17;3.38;;;15.60;78.20;;;;;;5070999;28;20047;-70
2021/05/21 05:57:53;;;;;;;17.63;3.40;;;15.70;75.40;;;;;;5068157;28;20501;-69
2021/05/21 06:00:19;;;;;;;12.13;3.28;;;15.60;75.00;;;;;;5059557;28;20063;-70
2021/05/21 06:02:45;;;;;;;13.50;3.03;;;15.70;76.20;;;;;;5063314;28;20075;-71
2021/05/21 06:05:11;;;;;;;15.70;3.45;;;15.80;74.20;;;;;;5062391;28;20028;-70
2021/05/21 06:07:36;;;;;;;14.82;3.35;;;15.90;74.20;;;;;;5070848;28;20398;-71
2021/05/21 06:10:04;;;;;;;17.17;3.90;;;16.70;72.00;;;;;;5070172;28;20040;-70
2021/05/21 06:12:30;;;;;;;12.75;3.65;;;17.40;70.70;;;;;;5056097;28;20040;-71
2021/05/21 06:14:56;;;;;;;13.07;3.67;;;17.80;69.10;;;;;;5053571;28;20049;-70
2021/05/21 06:17:22;;;;;;;13.20;3.35;;;18.60;65.50;;;;;;5056419;28;20037;-70
2021/05/21 06:19:47;;;;;;;9.05;2.60;;;19.10;63.40;;;;;;5059946;28;20484;-70
2021/05/21 06:22:13;;;;;;;12.80;3.28;;;18.60;62.50;;;;;;5061385;28;20067;-70
2021/05/21 06:24:42;;;;;;;11.63;3.42;;;18.40;62.70;;;;;;5065912;28;20037;-71
2021/05/21 06:27:24;;;;;;;11.43;2.88;;;18.80;62.30;;;;;;5063343;28;20150;-71
2021/05/21 06:29:50;;;;;;;12.48;2.88;;;20.00;60.10;;;;;;5068009;28;20112;-71
2021/05/21 06:32:15;;;;;;;13.23;2.97;;;20.90;58.30;;;;;;5063890;28;20179;-71
2021/05/21 06:34:42;;;;;;;15.00;3.20;;;21.40;55.90;;;;;;5062479;28;20105;-71
2021/05/21 06:37:07;;;;;;;13.00;2.83;;;21.70;54.70;;;;;;5055275;28;20037;-69
2021/05/21 06:39:33;;;;;;;12.07;3.13;;;22.30;53.80;;;;;;5057742;28;20501;-70
2021/05/21 06:41:59;;;;;;;11.70;3.38;;;22.10;52.60;;;;;;5058647;28;20076;-70
2021/05/21 06:44:25;;;;;;;10.90;3.03;;;22.20;54.10;;;;;;5060023;28;20131;-70
2021/05/21 06:46:50;;;;;;;11.20;3.40;;;22.60;50.00;;;;;;5068017;28;20131;-71
2021/05/21 06:49:16;;;;;;;12.32;3.67;;;22.30;49.90;;;;;;5063080;28;20051;-71
2021/05/21 06:51:42;;;;;;;7.78;2.63;;;21.70;51.30;;;;;;5066331;28;20035;-72
2021/05/21 06:54:08;;;;;;;12.63;3.15;;;20.40;54.30;;;;;;5072795;28;20040;-70
2021/05/21 06:56:36;;;;;;;10.57;2.90;;;19.90;55.60;;;;;;5082709;28;20025;-71
2021/05/21 06:59:03;;;;;;;11.02;3.42;;;18.90;57.50;;;;;;5069024;28;20478;-71
2021/05/21 07:01:30;;;;;;;8.30;2.70;;;18.10;59.60;;;;;;5066806;28;20032;-71
2021/05/21 07:03:56;;;;;;;11.48;3.20;;;17.60;62.30;;;;;;5066871;28;20054;-69
2021/05/21 07:06:22;;;;;;;13.77;3.30;;;17.40;63.10;;;;;;5053981;28;20082;-69
2021/05/21 07:08:47;;;;;;;11.55;3.35;;;17.10;63.80;;;;;;5059833;28;20049;-69
2021/05/21 07:11:13;;;;;;;10.82;3.10;;;16.70;65.20;;;;;;5062428;28;20041;-69
2021/05/21 07:13:39;;;;;;;12.23;3.20;;;16.70;65.20;;;;;;5062716;28;20058;-70
2021/05/21 07:16:04;;;;;;;14.25;3.40;;;16.60;66.00;;;;;;5066128;28;20439;-69
2021/05/21 07:18:30;;;;;;;17.75;4.07;;;16.10;67.00;;;;;;5060434;28;20441;-69
2021/05/21 07:21:01;;;;;;;14.25;3.10;;;15.90;66.70;;;;;;5063914;28;20080;-69
2021/05/21 07:23:27;;;;;;;11.73;3.15;;;15.60;67.30;;;;;;5056534;28;20510;-70
2021/05/21 07:25:52;;;;;;;15.00;3.85;;;15.40;68.00;;;;;;5065731;28;20075;-69
2021/05/21 07:28:18;;;;;;;15.80;3.22;;;15.40;69.80;;;;;;5068067;28;20067;-69
2021/05/21 07:30:45;;;;;;;12.63;3.00;;;15.50;69.00;;;;;;5067642;28;20028;-69
2021/05/21 07:33:11;;;;;;;14.15;3.13;;;15.60;69.80;;;;;;5068015;28;20036;-69
2021/05/21 07:35:37;;;;;;;10.30;3.10;;;15.60;69.10;;;;;;5066440;28;20053;-70
2021/05/21 07:38:03;;;;;;;10.93;2.80;;;16.20;69.00;;;;;;5069063;28;20544;-70
2021/05/21 07:40:29;;;;;;;13.95;3.35;;;16.50;66.30;;;;;;5068598;28;20048;-71
2021/05/21 07:42:56;;;;;;;12.50;3.13;;;16.90;65.80;;;;;;5067488;28;20040;-69
2021/05/21 07:45:22;;;;;;;9.73;2.80;;;17.70;62.40;;;;;;5054384;28;20041;-69
2021/05/21 07:47:48;;;;;;;13.93;3.15;;;18.00;61.70;;;;;;5052133;28;20037;-69
2021/05/21 07:50:14;;;;;;;9.20;3.08;;;17.50;62.80;;;;;;5064233;28;20140;-68
2021/05/21 07:52:40;;;;;;;11.38;2.92;;;17.00;62.60;;;;;;5066734;28;20505;-69
2021/05/21 07:55:06;;;;;;;11.77;3.10;;;16.80;64.80;;;;;;5053557;28;20072;-69
2021/05/21 07:57:33;;;;;;;10.90;2.70;;;16.90;64.80;;;;;;5056965;28;20037;-69
2021/05/21 07:59:58;;;;;;;12.35;3.40;;;16.70;65.60;;;;;;5056996;28;20040;-69
2021/05/21 08:02:24;;;;;;;16.45;3.38;;;16.30;66.90;;;;;;5060096;28;20050;-69
2021/05/21 08:04:50;;;;;;;13.02;3.67;;;15.90;68.10;;;;;;5065876;28;20039;-70
2021/05/21 08:07:15;;;;;;;12.52;2.90;;;15.80;69.00;;;;;;5055812;28;20106;-69
2021/05/21 08:09:44;;;;;;;12.05;3.20;;;15.60;70.00;;;;;;5056513;28;20045;-69
2021/05/21 08:12:10;;;;;;;15.00;4.07;;;15.50;69.20;;;;;;5059694;28;20474;-68
2021/05/21 08:14:36;;;;;;;14.02;5.40;;;15.40;70.90;;;;;;5064478;28;20055;-70
2021/05/21 08:17:02;;;;;;;13.60;4.25;;;15.50;70.40;;;;;;5068427;28;20091;-68
2021/05/21 08:19:28;;;;;;;14.18;2.78;;;15.40;71.60;;;;;;5067930;28;20029;-68
2021/05/21 08:21:54;;;;;;;13.18;3.15;;;15.40;68.50;;;;;;5070122;28;20040;-68
2021/05/21 08:24:19;;;;;;;10.38;2.42;;;15.40;70.50;;;;;;5069384;28;20040;-69
2021/05/21 08:26:45;;;;;;;14.15;2.78;;;15.40;69.20;;;;;;5065151;28;20052;-69
2021/05/21 08:29:11;;;;;;;11.73;2.63;;;15.50;68.90;;;;;;5068404;28;20491;-68
2021/05/21 08:31:36;;;;;;;9.05;2.42;;;15.60;66.40;;;;;;5071923;28;20044;-68
2021/05/21 08:34:02;;;;;;;11.20;2.90;;;15.70;68.40;;;;;;5069799;28;20473;-69
2021/05/21 08:36:29;;;;;;;13.80;3.22;;;15.70;67.10;;;;;;5067736;28;20044;-68
2021/05/21 08:38:54;;;;;;;12.63;3.08;;;16.00;68.00;;;;;;5069061;28;20129;-68
2021/05/21 08:41:28;;;;;;;8.85;2.35;;;16.10;66.20;;;;;;5069373;28;20045;-68
2021/05/21 08:43:55;;;;;;;12.13;2.70;;;16.30;65.00;;;;;;5065691;28;20119;-69
2021/05/21 08:46:22;;;;;;;8.77;3.03;;;16.40;64.60;;;;;;5062964;28;20068;-69
2021/05/21 08:48:48;;;;;;;11.18;2.90;;;16.60;63.90;;;;;;5071692;28;20060;-68
2021/05/21 08:51:15;;;;;;;13.07;2.47;;;16.80;62.70;;;;;;5071537;28;20029;-69
2021/05/21 08:53:41;;;;;;;8.88;2.85;;;17.00;63.60;;;;;;5056769;28;20041;-70
2021/05/21 08:56:08;;;;;;;7.65;2.10;;;17.10;61.90;;;;;;5054722;28;20043;-69
2021/05/21 08:58:34;;;;;;;10.80;2.20;;;17.10;63.80;;;;;;5063919;28;20041;-69
2021/05/21 09:01:00;;;;;;;10.05;2.55;;;17.20;62.40;;;;;;5068620;28;20067;-68
2021/05/21 09:03:29;;;;;;;11.95;2.88;;;17.20;62.10;;;;;;5053994;28;20048;-67
2021/05/21 09:08:51;;;;;;;14.00;3.25;;;17.10;60.70;;;;;;5066852;28;20873;-68
2021/05/21 09:11:34;;;;;;;14.15;2.78;;;17.00;59.90;;;;;;5069296;28;20117;-69
2021/05/21 09:14:11;;;;;;;10.70;2.63;;;16.80;61.70;;;;;;5070189;28;20044;-69
2021/05/21 09:16:39;;;;;;;12.45;2.92;;;16.70;60.80;;;;;;5068208;28;20034;-69
2021/05/21 09:19:13;;;;;;;16.00;3.10;;;16.70;63.20;;;;;;5069840;28;20029;-68
2021/05/21 09:22:00;;;;;;;10.70;2.53;;;16.80;61.00;;;;;;5068165;28;20075;-68
2021/05/21 09:24:35;;;;;;;12.68;2.92;;;16.70;61.90;;;;;;5059836;28;20127;-69
2021/05/21 09:27:02;;;;;;;9.50;2.60;;;16.70;59.50;;;;;;5067221;28;20063;-69
2021/05/21 09:29:46;;;;;;;13.38;2.85;;;16.70;61.80;;;;;;5069494;28;20037;-69
2021/05/21 09:32:21;;;;;;;14.68;2.53;;;16.50;60.30;;;;;;5068914;28;20036;-69
2021/05/21 09:35:00;;;;;;;9.45;2.42;;;16.50;61.70;;;;;;5070807;28;20115;-69
2021/05/21 09:37:27;;;;;;;13.63;2.03;;;16.50;61.20;;;;;;5066788;28;20056;-69
2021/05/21 09:40:26;;;;;;;11.38;2.50;;;16.30;60.10;;;;;;5063188;28;20049;-69
2021/05/21 09:43:03;;;;;;;8.25;2.08;;;16.30;63.50;;;;;;5066257;28;20112;-69
2021/05/21 09:45:32;;;;;;;12.65;2.58;;;16.40;62.60;;;;;;5060353;28;20086;-70
2021/05/21 09:48:04;;;;;;;10.85;2.28;;;16.50;62.10;;;;;;5066951;28;20052;-69
2021/05/21 09:50:37;;;;;;;9.43;3.20;;;16.50;60.80;;;;;;5071145;28;20464;-69
2021/05/21 09:53:07;;;;;;;10.75;2.67;;;16.60;61.50;;;;;;5068157;28;20133;-69
2021/05/21 09:55:37;;;;;;;13.05;4.07;;;16.70;63.60;;;;;;5069920;28;20478;-70
2021/05/21 09:58:03;;;;;;;11.95;4.22;;;16.80;63.00;;;;;;5069585;28;20040;-70
2021/05/21 10:00:29;;;;;;;13.55;3.90;;;16.90;63.10;;;;;;5070621;28;20071;-70
2021/05/21 10:02:56;;;;;;;9.07;2.85;;;17.20;63.20;;;;;;5070653;28;20036;-70
2021/05/21 10:05:22;;;;;;;10.15;2.85;;;17.40;61.10;;;;;;5061839;28;20047;-70
2021/05/21 10:07:52;;;;;;;9.10;2.20;;;17.50;60.60;;;;;;5067015;28;20037;-70
2021/05/21 10:10:18;;;;;;;10.88;2.75;;;17.50;60.40;;;;;;5070844;28;20047;-70
2021/05/21 10:12:44;;;;;;;8.70;2.20;;;17.20;63.50;;;;;;5062264;28;20120;-70
2021/05/21 10:15:10;;;;;;;5.43;1.92;;;16.60;68.60;;;;;;5061700;28;20112;-70
2021/05/21 10:17:37;;;;;;;6.93;1.90;;;16.10;70.00;;;;;;5068786;28;20068;-71
2021/05/21 10:20:04;;;;;;;9.30;2.17;;;15.90;71.90;;;;;;5069422;28;20447;-71
2021/05/21 10:22:38;;;;;;;6.63;2.10;;;15.60;73.90;;;;;;5065119;28;20040;-70
2021/05/21 10:25:12;;;;;;;8.88;2.33;;;15.40;73.30;;;;;;5064113;28;20075;-70
2021/05/21 10:27:40;;;;;;;9.95;2.40;;;15.10;73.90;;;;;;5067857;28;20045;-70
2021/05/21 10:30:07;;;;;;;8.10;2.28;;;14.40;75.80;;;;;;5061948;28;20063;-70
2021/05/21 10:32:35;;;;;;;6.65;1.73;;;14.30;77.00;;;;;;5065091;28;20033;-70
2021/05/21 10:35:14;;;;;;;9.07;1.77;;;14.20;77.80;;;;;;5069153;28;20041;-70
2021/05/21 10:37:40;;;;;;;6.40;1.70;;;14.10;78.10;;;;;;5050919;28;20037;-70
2021/05/21 10:40:12;;;;;;;7.45;2.10;;;14.00;78.70;;;;;;5057356;28;20052;-70
2021/05/21 10:42:49;;;;;;;8.43;2.42;;;14.00;80.70;;;;;;5067915;28;20036;-70
2021/05/21 10:45:16;;;;;;;7.70;2.10;;;14.10;79.80;;;;;;5062596;28;20032;-70
2021/05/21 10:47:48;;;;;;;5.68;1.60;;;14.40;80.70;;;;;;5068648;28;20098;-71
2021/05/21 10:50:18;;;;;;;5.40;1.63;;;14.60;79.60;;;;;;5068746;28;20047;-70
2021/05/21 10:52:51;;;;;;;5.72;2.00;;;14.90;78.10;;;;;;5067189;28;20043;-70
2021/05/21 10:55:19;;;;;;;6.63;1.92;;;15.10;76.70;;;;;;5054977;28;20036;-70
2021/05/21 10:57:58;;;;;;;8.85;2.38;;;15.20;74.80;;;;;;5059373;28;20032;-71
2021/05/21 11:00:24;;;;;;;10.07;2.30;;;15.30;76.20;;;;;;5061088;28;20102;-71
2021/05/21 11:02:52;;;;;;;11.07;2.72;;;15.40;75.20;;;;;;5063681;28;20395;-70
2021/05/21 11:05:35;;;;;;;7.80;2.45;;;15.40;74.20;;;;;;5069056;28;20116;-70
2021/05/21 11:08:12;;;;;;;4.40;1.85;;;15.20;74.10;;;;;;5067340;28;20037;-70
2021/05/21 11:10:43;;;;;;;9.60;2.45;;;15.20;73.60;;;;;;5065398;28;20033;-69
2021/05/21 11:13:11;;;;;;;7.53;2.53;;;15.30;74.80;;;;;;5048010;28;20041;-69
2021/05/21 11:15:41;;;;;;;9.63;2.60;;;15.50;74.60;;;;;;5058018;28;20710;-70
2021/05/21 11:18:20;;;;;;;8.60;2.25;;;15.90;73.80;;;;;;5054511;28;20049;-70
2021/05/21 11:21:12;;;;;;;10.40;2.50;;;16.30;70.80;;;;;;5058909;28;20067;-70
2021/05/21 11:23:50;;;;;;;8.15;2.38;;;16.40;71.10;;;;;;5054568;28;20455;-70
2021/05/21 11:26:19;;;;;;;9.38;2.40;;;16.50;67.80;;;;;;5068743;28;20040;-69
2021/05/21 11:28:57;;;;;;;8.00;2.22;;;16.80;70.30;;;;;;5063510;28;20041;-67
2021/05/21 11:31:24;;;;;;;9.40;2.92;;;17.00;67.70;;;;;;5068034;28;20097;-67
2021/05/21 11:33:51;;;;;;;6.93;2.25;;;17.00;65.40;;;;;;5067577;28;20394;-70
2021/05/21 11:36:24;;;;;;;9.48;2.60;;;17.00;67.20;;;;;;5061285;28;20052;-69
2021/05/21 11:38:51;;;;;;;8.73;2.55;;;17.00;69.20;;;;;;5064142;28;20048;-69
2021/05/21 11:41:18;;;;;;;9.05;2.55;;;17.10;68.00;;;;;;5068875;28;20405;-67
2021/05/21 11:43:47;;;;;;;8.27;2.60;;;17.40;66.90;;;;;;5062738;28;20182;-68
2021/05/21 11:46:21;;;;;;;8.95;2.33;;;17.50;66.00;;;;;;5067291;28;20128;-69
2021/05/21 11:48:51;;;;;;;7.50;1.92;;;17.40;64.00;;;;;;5052558;28;20155;-69
2021/05/21 11:51:26;;;;;;;5.75;1.70;;;17.20;63.80;;;;;;5068380;28;20033;-69
2021/05/21 11:54:03;;;;;;;7.78;2.38;;;16.90;64.80;;;;;;5063817;28;20056;-70
2021/05/21 11:56:40;;;;;;;9.85;3.03;;;16.60;64.10;;;;;;5068906;28;20063;-70
2021/05/21 11:59:10;;;;;;;6.60;1.92;;;16.50;63.90;;;;;;5069725;28;20238;-67
2021/05/21 12:01:37;;;;;;;10.40;1.98;;;16.80;63.60;;;;;;5053366;28;20041;-68
2021/05/21 12:04:06;;;;;;;7.93;2.05;;;17.10;66.10;;;;;;5061130;28;20506;-68
2021/05/21 12:06:33;;;;;;;9.38;2.85;;;17.30;63.00;;;;;;5073202;28;20048;-68
2021/05/21 12:08:58;;;;;;;7.93;2.15;;;17.40;62.70;;;;;;5070939;28;20033;-69
2021/05/21 12:11:26;;;;;;;8.02;2.00;;;17.70;63.50;;;;;;5053477;28;20060;-68
2021/05/21 12:13:52;;;;;;;7.93;2.42;;;17.70;61.10;;;;;;5065500;28;20059;-69
2021/05/21 12:16:19;;;;;;;8.57;2.47;;;17.60;60.50;;;;;;5064198;28;20043;-68
2021/05/21 12:18:46;;;;;;;9.18;2.10;;;17.50;60.90;;;;;;5062402;28;20036;-69
2021/05/21 12:21:22;;;;;;;10.38;2.60;;;17.20;64.00;;;;;;5067802;28;20037;-68
2021/05/21 12:23:52;;;;;;;11.25;2.15;;;17.10;65.70;;;;;;5067926;28;20098;-69
2021/05/21 12:26:21;;;;;;;6.10;1.65;;;16.90;66.20;;;;;;5064083;28;20474;-70
2021/05/21 12:28:47;;;;;;;8.75;2.15;;;16.80;66.20;;;;;;5067441;28;22403;-70
2021/05/21 12:31:13;;;;;;;8.13;2.38;;;16.90;66.90;;;;;;5058215;28;20617;-70
2021/05/21 12:33:40;;;;;;;8.98;2.30;;;16.90;65.50;;;;;;5068802;28;20110;-71
2021/05/21 12:36:14;;;;;;;7.82;2.05;;;17.00;66.20;;;;;;5065046;28;20069;-70
2021/05/21 12:38:48;;;;;;;10.23;2.50;;;17.20;65.50;;;;;;5069881;28;20394;-69
2021/05/21 12:41:15;;;;;;;11.25;2.65;;;17.20;63.30;;;;;;5071796;28;20109;-69
2021/05/21 12:43:41;;;;;;;11.57;2.70;;;17.30;65.10;;;;;;5067421;28;20474;-68
2021/05/21 12:46:08;;;;;;;6.93;1.85;;;17.50;63.50;;;;;;5070290;28;20089;-68